createdAt,value
2023-09-17T00:01:06.172Z,71.43
2023-09-17T00:04:28.866Z,71.82
2023-09-17T00:07:32.718Z,71.21
2023-09-17T00:10:38.434Z,71.42
2023-09-17T00:13:43.115Z,71.36
2023-09-17T00:16:47.695Z,71.63
2023-09-17T00:19:53.346Z,71.54
2023-09-17T00:22:57.051Z,72.01
2023-09-17T00:26:01.038Z,71.67
2023-09-17T00:29:05.813Z,71.64
2023-09-17T00:32:10.206Z,71.81
2023-09-17T00:35:15.827Z,71.56
2023-09-17T00:38:19.543Z,71.24
2023-09-17T00:41:23.626Z,71.67
2023-09-17T00:44:27.932Z,71.60
2023-09-17T00:47:32.727Z,71.36
2023-09-17T00:50:40.616Z,71.59
2023-09-17T00:53:45.238Z,71.76
2023-09-17T00:56:49.644Z,71.25
2023-09-17T00:59:53.725Z,71.22
2023-09-17T01:02:57.808Z,71.27
2023-09-17T01:06:05.229Z,71.94
2023-09-17T01:09:09.771Z,71.48
2023-09-17T01:12:14.325Z,71.58
2023-09-17T01:15:18.368Z,71.56
2023-09-17T01:18:23.395Z,71.53
2023-09-17T01:21:37.366Z,72.24
2023-09-17T01:24:48.813Z,72.25
2023-09-17T01:27:54.651Z,72.11
2023-09-17T01:30:58.938Z,71.52
2023-09-17T01:34:03.976Z,71.74
2023-09-17T01:37:16.968Z,72.04
2023-09-17T01:40:20.909Z,71.61
2023-09-17T01:43:26.515Z,71.94
2023-09-17T01:46:31.697Z,72.03
2023-09-17T01:49:36.479Z,71.92
2023-09-17T01:52:42.335Z,72.17
2023-09-17T01:55:46.157Z,71.76
2023-09-17T01:58:51.654Z,72.30
2023-09-17T02:01:55.850Z,71.78
2023-09-17T02:04:59.822Z,71.90
2023-09-17T02:08:05.016Z,72.40
2023-09-17T02:11:08.881Z,72.43
2023-09-17T02:14:14.303Z,72.56
2023-09-17T02:17:19.286Z,72.08
2023-09-17T02:20:23.082Z,72.54
2023-09-17T02:23:28.282Z,72.24
2023-09-17T02:26:32.076Z,72.61
2023-09-17T02:29:38.157Z,72.78
2023-09-17T02:32:43.161Z,72.08
2023-09-17T02:35:46.867Z,72.56
2023-09-17T02:38:51.050Z,72.50
2023-09-17T02:41:54.820Z,72.43
2023-09-17T02:45:00.203Z,72.74
2023-09-17T02:48:04.189Z,72.57
2023-09-17T02:51:07.967Z,72.77
2023-09-17T02:54:12.262Z,73.02
2023-09-17T02:57:16.037Z,72.88
2023-09-17T03:00:22.981Z,72.92
2023-09-17T03:03:27.126Z,72.75
2023-09-17T03:06:32.562Z,72.92
2023-09-17T03:09:36.820Z,73.02
2023-09-17T03:12:40.732Z,73.13
2023-09-17T03:15:46.713Z,73.50
2023-09-17T03:18:51.522Z,73.43
2023-09-17T03:21:55.273Z,73.23
2023-09-17T03:25:04.271Z,73.80
2023-09-17T03:28:13.010Z,73.98
2023-09-17T03:31:19.833Z,74.07
2023-09-17T03:34:26.343Z,73.77
2023-09-17T03:37:30.239Z,73.93
2023-09-17T03:40:34.450Z,74.26
2023-09-17T03:43:38.254Z,74.22
2023-09-17T03:46:43.911Z,74.51
2023-09-17T03:49:48.182Z,74.75
2023-09-17T03:52:55.066Z,74.77
2023-09-17T03:56:00.075Z,74.54
2023-09-17T03:59:05.909Z,74.86
2023-09-17T04:02:11.232Z,74.60
2023-09-17T04:05:15.647Z,75.03
2023-09-17T04:08:19.679Z,75.17
2023-09-17T04:11:23.824Z,74.99
2023-09-17T04:14:27.700Z,74.94
2023-09-17T04:17:33.062Z,75.32
2023-09-17T04:20:37.880Z,75.25
2023-09-17T04:23:42.519Z,75.47
2023-09-17T04:26:47.341Z,75.51
2023-09-17T04:29:51.625Z,75.25
2023-09-17T04:32:57.837Z,75.54
2023-09-17T04:36:02.166Z,75.26
2023-09-17T04:39:06.304Z,75.48
2023-09-17T04:42:10.628Z,75.50
2023-09-17T04:45:23.177Z,75.53
2023-09-17T04:48:29.039Z,75.80
2023-09-17T04:51:33.217Z,75.47
2023-09-17T04:54:37.085Z,75.62
2023-09-17T04:57:41.335Z,75.25
2023-09-17T05:00:45.661Z,75.82
2023-09-17T05:03:51.700Z,75.69
2023-09-17T05:06:56.206Z,75.24
2023-09-17T05:10:00.111Z,75.02
2023-09-17T05:13:04.968Z,74.73
2023-09-17T05:16:09.967Z,74.88
2023-09-17T05:19:15.928Z,75.28
2023-09-17T05:22:19.881Z,74.59
2023-09-17T05:25:23.944Z,74.92
2023-09-17T05:28:28.280Z,74.77
2023-09-17T05:31:33.996Z,74.56
2023-09-17T05:34:40.046Z,74.83
2023-09-17T05:37:44.929Z,74.36
2023-09-17T05:40:48.767Z,74.53
2023-09-17T05:43:53.069Z,73.92
2023-09-17T05:46:57.564Z,74.14
2023-09-17T05:50:04.811Z,74.57
2023-09-17T05:53:12.004Z,73.66
2023-09-17T05:56:15.753Z,74.19
2023-09-17T05:59:21.135Z,73.62
2023-09-17T06:02:26.258Z,73.79
2023-09-17T06:05:31.489Z,73.70
2023-09-17T06:08:35.557Z,73.54
2023-09-17T06:11:39.508Z,73.43
2023-09-17T06:14:44.337Z,73.60
2023-09-17T06:17:48.634Z,73.67
2023-09-17T06:20:54.677Z,73.60
2023-09-17T06:23:59.106Z,73.30
2023-09-17T06:27:03.157Z,73.28
2023-09-17T06:30:09.023Z,72.96
2023-09-17T06:33:12.920Z,73.13
2023-09-17T06:36:18.546Z,72.90
2023-09-17T06:39:22.824Z,72.88
2023-09-17T06:42:27.218Z,72.53
2023-09-17T06:45:32.676Z,72.20
2023-09-17T06:48:36.431Z,72.21
2023-09-17T06:51:41.761Z,72.14
2023-09-17T06:54:45.644Z,72.01
2023-09-17T06:57:49.336Z,71.94
2023-09-17T07:00:54.378Z,71.63
2023-09-17T07:03:58.404Z,71.47
2023-09-17T07:07:03.694Z,71.18
2023-09-17T07:10:09.376Z,70.77
2023-09-17T07:13:15.032Z,70.74
2023-09-17T07:16:19.407Z,70.49
2023-09-17T07:19:23.202Z,70.72
2023-09-17T07:22:28.580Z,70.83
2023-09-17T07:25:33.456Z,70.64
2023-09-17T07:28:37.341Z,70.40
2023-09-17T07:31:43.893Z,70.35
2023-09-17T07:34:47.648Z,70.33
2023-09-17T07:37:53.143Z,70.00
2023-09-17T07:40:57.626Z,70.06
2023-09-17T07:44:01.395Z,70.03
2023-09-17T07:47:07.517Z,69.93
2023-09-17T07:50:11.934Z,69.67
2023-09-17T07:53:17.376Z,69.61
2023-09-17T07:56:23.727Z,69.27
2023-09-17T07:59:29.041Z,69.04
2023-09-17T08:02:33.559Z,68.94
2023-09-17T08:05:37.284Z,68.60
2023-09-17T08:08:47.124Z,68.58
2023-09-17T08:11:51.869Z,68.14
2023-09-17T08:14:55.581Z,67.75
2023-09-17T08:17:59.913Z,67.72
2023-09-17T08:21:05.071Z,67.17
2023-09-17T08:24:11.488Z,67.04
2023-09-17T08:27:18.271Z,66.58
2023-09-17T08:30:21.974Z,66.19
2023-09-17T08:33:25.881Z,65.74
2023-09-17T08:36:29.597Z,65.15
2023-09-17T08:39:35.497Z,64.45
2023-09-17T08:42:41.272Z,63.86
2023-09-17T08:45:45.189Z,63.10
2023-09-17T08:48:49.243Z,62.98
2023-09-17T08:51:58.270Z,62.69
2023-09-17T08:55:09.201Z,62.16
2023-09-17T08:58:18.072Z,62.43
2023-09-17T09:01:26.198Z,62.50
2023-09-17T09:04:32.234Z,62.32
2023-09-17T09:07:37.229Z,62.04
2023-09-17T09:10:43.120Z,61.51
2023-09-17T09:13:51.572Z,61.13
2023-09-17T09:16:56.756Z,60.90
2023-09-17T09:20:00.860Z,60.02
2023-09-17T09:23:07.326Z,59.13
2023-09-17T09:26:12.687Z,58.31
2023-09-17T09:29:16.685Z,58.09
2023-09-17T09:32:21.307Z,58.00
2023-09-17T09:35:26.280Z,57.54
2023-09-17T09:38:30.795Z,57.09
2023-09-17T09:41:36.297Z,57.35
2023-09-17T09:44:40.476Z,57.29
2023-09-17T09:47:50.201Z,57.14
2023-09-17T09:50:54.845Z,57.38
2023-09-17T09:53:58.696Z,56.86
2023-09-17T09:57:06.162Z,56.48
2023-09-17T10:00:16.248Z,56.03
2023-09-17T10:03:21.803Z,56.26
2023-09-17T10:06:26.128Z,56.30
2023-09-17T10:09:30.377Z,56.22
2023-09-17T10:12:36.452Z,55.93
2023-09-17T10:15:43.382Z,55.49
2023-09-17T10:18:47.854Z,54.90
2023-09-17T10:21:55.420Z,54.14
2023-09-17T10:24:59.178Z,53.72
2023-09-17T10:28:06.743Z,53.28
2023-09-17T10:31:12.007Z,53.26
2023-09-17T10:34:18.914Z,52.68
2023-09-17T10:37:24.225Z,52.53
2023-09-17T10:40:29.345Z,52.71
2023-09-17T10:43:37.413Z,52.17
2023-09-17T10:46:46.493Z,52.39
2023-09-17T10:49:51.418Z,52.85
2023-09-17T10:52:55.490Z,52.25
2023-09-17T10:56:05.476Z,52.40
2023-09-17T10:59:14.592Z,51.89
2023-09-17T11:02:20.259Z,51.73
2023-09-17T11:05:27.691Z,51.29
2023-09-17T11:08:31.963Z,51.21
2023-09-17T11:11:37.031Z,50.87
2023-09-17T11:14:43.020Z,51.10
2023-09-17T11:17:48.941Z,50.41
2023-09-17T11:21:08.414Z,49.55
2023-09-17T11:24:14.009Z,50.16
2023-09-17T11:27:21.227Z,49.78
2023-09-17T11:30:26.717Z,49.93
2023-09-17T11:33:31.966Z,49.60
2023-09-17T11:36:36.130Z,49.61
2023-09-17T11:39:51.698Z,49.62
2023-09-17T11:42:55.540Z,49.56
2023-09-17T11:46:01.473Z,48.93
2023-09-17T11:49:09.248Z,48.11
2023-09-17T11:52:14.246Z,47.65
2023-09-17T11:55:24.691Z,46.63
2023-09-17T11:58:33.530Z,47.19
2023-09-17T12:01:44.424Z,47.27
2023-09-17T12:04:50.544Z,47.84
2023-09-17T12:07:55.476Z,47.72
2023-09-17T12:11:23.248Z,46.85
2023-09-17T12:14:27.717Z,46.35
2023-09-17T12:17:39.495Z,44.58
2023-09-17T12:20:58.222Z,41.73
2023-09-17T12:24:06.642Z,38.69
2023-09-17T12:27:36.476Z,36.47
2023-09-17T12:30:41.073Z,33.33
2023-09-17T12:33:46.455Z,30.53
2023-09-17T12:36:50.402Z,27.85
2023-09-17T12:39:54.590Z,27.94
2023-09-17T12:42:58.657Z,31.44
2023-09-17T12:46:02.970Z,34.68
2023-09-17T12:49:08.793Z,33.24
2023-09-17T12:52:13.596Z,33.82
2023-09-17T12:55:18.216Z,33.71
2023-09-17T12:58:23.128Z,29.06
2023-09-17T13:01:28.651Z,27.27
2023-09-17T13:04:39.281Z,23.41
2023-09-17T13:07:43.436Z,24.03
2023-09-17T13:10:47.190Z,22.47
2023-09-17T13:13:53.193Z,21.38
2023-09-17T13:16:57.345Z,21.10
2023-09-17T13:20:03.201Z,20.15
2023-09-17T13:23:07.416Z,20.42
2023-09-17T13:26:11.583Z,20.24
2023-09-17T13:29:15.531Z,20.18
2023-09-17T13:32:21.575Z,19.88
2023-09-17T13:35:29.277Z,19.86
2023-09-17T13:38:35.191Z,20.20
2023-09-17T13:41:38.905Z,20.02
2023-09-17T13:44:43.093Z,20.66
2023-09-17T13:47:46.748Z,20.55
2023-09-17T13:50:52.671Z,20.60
2023-09-17T13:53:56.557Z,20.67
2023-09-17T13:57:00.212Z,22.02
2023-09-17T14:00:04.411Z,25.11
2023-09-17T14:03:17.442Z,27.99
2023-09-17T14:06:22.876Z,29.95
2023-09-17T14:09:26.787Z,30.77
2023-09-17T14:12:30.468Z,31.72
2023-09-17T14:15:35.760Z,32.55
2023-09-17T14:18:39.522Z,32.92
2023-09-17T14:21:44.849Z,33.42
2023-09-17T14:24:48.785Z,34.21
2023-09-17T14:27:53.073Z,35.29
2023-09-17T14:30:57.189Z,35.88
2023-09-17T14:34:01.351Z,36.24
2023-09-17T14:37:06.764Z,36.50
2023-09-17T14:40:11.236Z,36.84
2023-09-17T14:43:15.104Z,36.22
2023-09-17T14:46:19.364Z,36.21
2023-09-17T14:49:23.345Z,36.15
2023-09-17T14:52:28.819Z,35.51
2023-09-17T14:55:32.727Z,35.18
2023-09-17T14:58:36.213Z,34.93
2023-09-17T15:01:59.039Z,33.30
2023-09-17T15:05:03.926Z,32.31
2023-09-17T15:08:09.623Z,31.20
2023-09-17T15:11:13.223Z,31.09
2023-09-17T15:14:17.288Z,31.56
2023-09-17T15:17:21.929Z,32.27
2023-09-17T15:20:26.423Z,33.44
2023-09-17T15:23:32.036Z,34.80
2023-09-17T15:26:35.965Z,35.74
2023-09-17T15:29:39.704Z,36.00
2023-09-17T15:32:44.027Z,36.57
2023-09-17T15:35:48.053Z,37.41
2023-09-17T15:38:53.321Z,37.44
2023-09-17T15:41:58.542Z,35.54
2023-09-17T15:45:02.400Z,33.98
2023-09-17T15:48:06.301Z,32.46
2023-09-17T15:51:11.010Z,31.28
2023-09-17T15:54:16.635Z,29.83
2023-09-17T15:57:20.614Z,30.34
2023-09-17T16:00:24.428Z,30.33
2023-09-17T16:03:28.485Z,31.64
2023-09-17T16:06:32.279Z,33.29
2023-09-17T16:09:37.652Z,33.86
2023-09-17T16:12:41.485Z,34.99
2023-09-17T16:15:45.120Z,35.96
2023-09-17T16:18:49.176Z,36.14
2023-09-17T16:21:53.071Z,36.24
2023-09-17T16:24:58.189Z,37.12
2023-09-17T16:28:02.154Z,37.43
2023-09-17T16:31:06.039Z,38.44
2023-09-17T16:34:09.949Z,39.90
2023-09-17T16:37:13.595Z,40.81
2023-09-17T16:40:19.125Z,42.18
2023-09-17T16:43:22.639Z,42.59
2023-09-17T16:46:26.529Z,43.43
2023-09-17T16:49:30.313Z,44.08
2023-09-17T16:52:34.227Z,45.14
2023-09-17T16:55:39.676Z,45.80
2023-09-17T16:58:43.672Z,46.19
2023-09-17T17:01:47.328Z,47.01
2023-09-17T17:04:55.642Z,47.31
2023-09-17T17:07:59.360Z,48.18
2023-09-17T17:11:04.955Z,48.75
2023-09-17T17:14:08.534Z,49.17
2023-09-17T17:17:12.383Z,49.64
2023-09-17T17:20:16.083Z,50.27
2023-09-17T17:23:19.860Z,50.57
2023-09-17T17:26:25.049Z,51.29
2023-09-17T17:29:29.002Z,51.51
2023-09-17T17:32:33.430Z,51.91
2023-09-17T17:35:37.404Z,52.08
2023-09-17T17:38:42.037Z,52.83
2023-09-17T17:45:04.022Z,53.46
2023-09-17T17:48:07.593Z,53.51
2023-09-17T17:51:11.259Z,54.09
2023-09-17T17:54:14.828Z,54.71
2023-09-17T17:57:20.175Z,55.50
2023-09-17T18:00:25.384Z,55.81
2023-09-17T18:03:29.138Z,55.61
2023-09-17T18:06:32.682Z,56.36
2023-09-17T18:09:35.951Z,56.61
2023-09-17T18:12:40.735Z,56.89
2023-09-17T18:15:45.645Z,57.47
2023-09-17T18:22:27.166Z,57.73
2023-09-17T18:25:32.861Z,58.13
2023-09-17T18:28:36.323Z,58.37
2023-09-17T18:31:41.115Z,58.97
2023-09-17T18:34:44.598Z,59.00
2023-09-17T18:37:48.081Z,59.34
2023-09-17T18:40:52.374Z,59.45
2023-09-17T18:43:55.965Z,59.80
2023-09-17T18:47:00.889Z,60.35
2023-09-17T18:50:04.509Z,60.52
2023-09-17T18:53:08.006Z,60.56
2023-09-17T18:56:11.486Z,60.92
2023-09-17T18:59:15.547Z,61.12
2023-09-17T19:02:20.622Z,61.66
2023-09-17T19:05:24.932Z,61.54
2023-09-17T19:08:28.608Z,61.70
2023-09-17T19:11:32.530Z,62.02
2023-09-17T19:14:36.020Z,62.28
2023-09-17T19:17:40.945Z,62.63
2023-09-17T19:20:45.183Z,62.41
2023-09-17T19:23:49.083Z,62.83
2023-09-17T19:26:52.857Z,62.88
2023-09-17T19:29:56.268Z,63.23
2023-09-17T19:33:01.359Z,63.59
2023-09-17T19:36:05.172Z,63.30
2023-09-17T19:39:09.290Z,63.63
2023-09-17T19:42:13.688Z,63.57
2023-09-17T19:45:17.281Z,63.98
2023-09-17T19:48:22.326Z,63.95
2023-09-17T19:51:25.925Z,63.94
2023-09-17T19:54:29.368Z,64.37
2023-09-17T19:57:32.865Z,64.37
2023-09-17T20:00:36.513Z,64.81
2023-09-17T20:03:41.439Z,65.16
2023-09-17T20:06:54.744Z,65.25
2023-09-17T20:09:59.257Z,65.25
2023-09-17T20:13:02.952Z,65.16
2023-09-17T20:16:06.675Z,65.49
2023-09-17T20:19:12.814Z,65.78
2023-09-17T20:22:16.366Z,65.74
2023-09-17T20:25:22.884Z,65.53
2023-09-17T20:28:26.738Z,65.67
2023-09-17T20:31:30.267Z,65.93
2023-09-17T20:34:35.199Z,65.91
2023-09-17T20:37:38.846Z,65.79
2023-09-17T20:40:42.359Z,65.98
2023-09-17T20:43:45.895Z,66.10
2023-09-17T20:46:49.437Z,66.40
2023-09-17T20:49:54.185Z,66.70
2023-09-17T20:52:57.978Z,66.55
2023-09-17T20:56:02.371Z,66.35
2023-09-17T20:59:06.004Z,66.72
2023-09-17T21:02:09.669Z,66.90
2023-09-17T21:05:16.317Z,67.04
2023-09-17T21:08:20.086Z,66.69
2023-09-17T21:11:23.576Z,67.12
2023-09-17T21:14:28.090Z,67.02
2023-09-17T21:17:31.630Z,67.00
2023-09-17T21:20:36.804Z,67.55
2023-09-17T21:23:40.240Z,67.37
2023-09-17T21:26:44.330Z,67.58
2023-09-17T21:29:47.935Z,67.85
2023-09-17T21:32:51.473Z,67.65
2023-09-17T21:35:56.709Z,68.06
2023-09-17T21:39:00.106Z,68.18
2023-09-17T21:42:03.723Z,67.92
2023-09-17T21:45:08.233Z,68.50
2023-09-17T21:48:12.788Z,68.28
2023-09-17T21:51:17.497Z,68.68
2023-09-17T21:54:21.071Z,68.53
2023-09-17T21:57:24.747Z,68.42
2023-09-17T22:00:28.456Z,68.71
2023-09-17T22:03:32.044Z,68.81
2023-09-17T22:06:37.198Z,69.21
2023-09-17T22:09:41.445Z,68.81
2023-09-17T22:12:45.334Z,68.96
2023-09-17T22:15:52.590Z,69.20
2023-09-17T22:18:56.722Z,68.73
2023-09-17T22:22:01.534Z,69.18
2023-09-17T22:25:05.502Z,69.31
2023-09-17T22:28:08.867Z,68.99
2023-09-17T22:31:13.974Z,69.37
2023-09-17T22:34:17.792Z,69.16
2023-09-17T22:37:22.843Z,69.24
2023-09-17T22:40:26.294Z,69.27
2023-09-17T22:43:29.955Z,69.04
2023-09-17T22:46:33.547Z,69.40
2023-09-17T22:49:37.419Z,69.05
2023-09-17T22:52:42.203Z,69.59
2023-09-17T22:55:45.884Z,69.12
2023-09-17T22:58:49.365Z,69.42
2023-09-17T23:01:53.187Z,69.11
2023-09-17T23:04:56.623Z,69.26
2023-09-17T23:08:01.696Z,69.36
2023-09-17T23:11:06.379Z,69.53
2023-09-17T23:14:11.662Z,69.59
2023-09-17T23:17:14.966Z,69.55
2023-09-17T23:20:18.687Z,69.64
2023-09-17T23:23:23.353Z,69.59
2023-09-17T23:26:29.238Z,69.67
2023-09-17T23:29:32.987Z,70.06
2023-09-17T23:32:37.998Z,69.94
2023-09-17T23:35:41.444Z,69.53
2023-09-17T23:38:46.325Z,70.12
2023-09-17T23:41:50.981Z,69.46
2023-09-17T23:44:54.879Z,69.84
2023-09-17T23:47:58.855Z,69.58
2023-09-17T23:51:03.156Z,69.89
2023-09-17T23:54:08.417Z,70.05
2023-09-17T23:57:14.798Z,69.85
